sensor_id;sensor_type;location;lat;lon;timestamp;pressure;altitude;pressure_sealevel;temperature;humidity
10135;BME280;5107;48.850;8.924;2022-12-18T00:01:00;97831.25;;;-8.21;91.75
10135;BME280;5107;48.850;8.924;2022-12-18T00:03:32;97825.19;;;-8.17;91.79
10135;BME280;5107;48.850;8.924;2022-12-18T00:05:59;97826.91;;;-8.17;92.18
10135;BME280;5107;48.850;8.924;2022-12-18T00:08:27;97835.38;;;-8.15;92.13
10135;BME280;5107;48.850;8.924;2022-12-18T00:10:54;97837.81;;;-8.11;91.92
10135;BME280;5107;48.850;8.924;2022-12-18T00:13:21;97832.69;;;-8.08;92.34
10135;BME280;5107;48.850;8.924;2022-12-18T00:15:48;97825.88;;;-8.09;92.23
10135;BME280;5107;48.850;8.924;2022-12-18T00:18:16;97830.22;;;-8.12;91.77
10135;BME280;5107;48.850;8.924;2022-12-18T00:20:43;97825.91;;;-8.10;92.03
10135;BME280;5107;48.850;8.924;2022-12-18T00:23:10;97821.72;;;-8.13;91.89
10135;BME280;5107;48.850;8.924;2022-12-18T00:25:38;97826.78;;;-8.11;92.53
10135;BME280;5107;48.850;8.924;2022-12-18T00:28:05;97832.81;;;-8.14;91.79
10135;BME280;5107;48.850;8.924;2022-12-18T00:30:32;97833.66;;;-8.13;91.90
10135;BME280;5107;48.850;8.924;2022-12-18T00:32:59;97831.94;;;-8.13;91.89
10135;BME280;5107;48.850;8.924;2022-12-18T00:35:27;97835.22;;;-8.08;91.00
10135;BME280;5107;48.850;8.924;2022-12-18T00:37:54;97842.94;;;-8.11;91.60
10135;BME280;5107;48.850;8.924;2022-12-18T00:40:22;97848.84;;;-8.09;91.67
10135;BME280;5107;48.850;8.924;2022-12-18T00:42:49;97840.31;;;-8.06;92.21
10135;BME280;5107;48.850;8.924;2022-12-18T00:45:22;97837.75;;;-8.06;91.96
10135;BME280;5107;48.850;8.924;2022-12-18T00:47:49;97836.91;;;-8.05;91.41
10135;BME280;5107;48.850;8.924;2022-12-18T00:50:16;97831.69;;;-8.00;91.24
10135;BME280;5107;48.850;8.924;2022-12-18T00:52:45;97834.22;;;-7.99;91.45
10135;BME280;5107;48.850;8.924;2022-12-18T00:55:13;97834.22;;;-7.99;91.80
10135;BME280;5107;48.850;8.924;2022-12-18T00:57:40;97838.59;;;-8.06;91.67
10135;BME280;5107;48.850;8.924;2022-12-18T01:00:11;97843.78;;;-8.12;91.31
10135;BME280;5107;48.850;8.924;2022-12-18T01:02:39;97837.09;;;-8.16;91.50
10135;BME280;5107;48.850;8.924;2022-12-18T01:05:07;97834.56;;;-8.19;91.56
10135;BME280;5107;48.850;8.924;2022-12-18T01:07:35;97832.97;;;-8.23;91.37
10135;BME280;5107;48.850;8.924;2022-12-18T01:10:05;97833.22;;;-8.35;90.14
10135;BME280;5107;48.850;8.924;2022-12-18T01:12:35;97834.16;;;-8.40;91.04
10135;BME280;5107;48.850;8.924;2022-12-18T01:15:04;97837.59;;;-8.41;91.99
10135;BME280;5107;48.850;8.924;2022-12-18T01:17:32;97842.69;;;-8.41;92.13
10135;BME280;5107;48.850;8.924;2022-12-18T01:20:00;97843.63;;;-8.47;91.23
10135;BME280;5107;48.850;8.924;2022-12-18T01:22:27;97852.16;;;-8.48;91.90
10135;BME280;5107;48.850;8.924;2022-12-18T01:24:54;97840.28;;;-8.51;91.39
10135;BME280;5107;48.850;8.924;2022-12-18T01:27:23;97835.31;;;-8.58;91.35
10135;BME280;5107;48.850;8.924;2022-12-18T01:29:51;97839.56;;;-8.57;91.70
10135;BME280;5107;48.850;8.924;2022-12-18T01:32:19;97840.47;;;-8.61;90.46
10135;BME280;5107;48.850;8.924;2022-12-18T01:34:46;97835.47;;;-8.67;90.59
10135;BME280;5107;48.850;8.924;2022-12-18T01:37:13;97831.31;;;-8.71;90.64
10135;BME280;5107;48.850;8.924;2022-12-18T01:39:40;97846.63;;;-8.73;90.98
10135;BME280;5107;48.850;8.924;2022-12-18T01:42:12;97846.53;;;-8.68;92.01
10135;BME280;5107;48.850;8.924;2022-12-18T01:45:03;97841.41;;;-8.67;91.61
10135;BME280;5107;48.850;8.924;2022-12-18T01:47:36;97849.78;;;-8.60;92.16
10135;BME280;5107;48.850;8.924;2022-12-18T01:50:09;97832.72;;;-8.54;92.13
10135;BME280;5107;48.850;8.924;2022-12-18T01:52:37;97819.88;;;-8.49;92.03
10135;BME280;5107;48.850;8.924;2022-12-18T01:55:07;97826.63;;;-8.47;92.10
10135;BME280;5107;48.850;8.924;2022-12-18T01:57:35;97828.22;;;-8.41;91.41
10135;BME280;5107;48.850;8.924;2022-12-18T02:00:07;97827.91;;;-8.26;91.69
10135;BME280;5107;48.850;8.924;2022-12-18T02:02:44;97839.69;;;-8.19;91.84
10135;BME280;5107;48.850;8.924;2022-12-18T02:05:16;97837.88;;;-8.12;91.80
10135;BME280;5107;48.850;8.924;2022-12-18T02:07:55;97838.63;;;-8.07;92.43
10135;BME280;5107;48.850;8.924;2022-12-18T02:10:30;97845.41;;;-8.06;92.04
10135;BME280;5107;48.850;8.924;2022-12-18T02:13:06;97841.91;;;-8.00;91.80
10135;BME280;5107;48.850;8.924;2022-12-18T02:15:44;97846.84;;;-7.93;91.88
10135;BME280;5107;48.850;8.924;2022-12-18T02:18:19;97842.41;;;-7.83;91.49
10135;BME280;5107;48.850;8.924;2022-12-18T02:20:54;97838.50;;;-8.01;90.77
10135;BME280;5107;48.850;8.924;2022-12-18T02:23:44;97847.03;;;-8.02;91.05
10135;BME280;5107;48.850;8.924;2022-12-18T02:26:20;97838.59;;;-8.04;90.90
10135;BME280;5107;48.850;8.924;2022-12-18T02:28:55;97844.44;;;-8.00;90.69
10135;BME280;5107;48.850;8.924;2022-12-18T02:31:30;97840.13;;;-7.97;90.42
10135;BME280;5107;48.850;8.924;2022-12-18T02:34:01;97834.06;;;-7.91;89.86
10135;BME280;5107;48.850;8.924;2022-12-18T02:36:37;97838.28;;;-7.89;89.05
10135;BME280;5107;48.850;8.924;2022-12-18T02:39:07;97844.28;;;-7.91;88.92
10135;BME280;5107;48.850;8.924;2022-12-18T02:41:43;97835.97;;;-8.02;88.36
10135;BME280;5107;48.850;8.924;2022-12-18T02:44:13;97837.06;;;-8.14;87.68
10135;BME280;5107;48.850;8.924;2022-12-18T02:46:44;97836.97;;;-8.11;88.40
10135;BME280;5107;48.850;8.924;2022-12-18T02:49:26;97847.16;;;-8.10;88.02
10135;BME280;5107;48.850;8.924;2022-12-18T02:52:07;97850.53;;;-8.06;88.00
10135;BME280;5107;48.850;8.924;2022-12-18T02:54:52;97846.25;;;-8.06;87.98
10135;BME280;5107;48.850;8.924;2022-12-18T02:57:33;97847.88;;;-8.01;87.54
10135;BME280;5107;48.850;8.924;2022-12-18T03:00:08;97850.44;;;-8.03;87.71
10135;BME280;5107;48.850;8.924;2022-12-18T03:02:41;97855.59;;;-8.05;87.22
10135;BME280;5107;48.850;8.924;2022-12-18T03:05:16;97847.84;;;-8.00;87.80
10135;BME280;5107;48.850;8.924;2022-12-18T03:07:49;97853.31;;;-8.20;87.04
10135;BME280;5107;48.850;8.924;2022-12-18T03:10:25;97858.47;;;-8.21;86.64
10135;BME280;5107;48.850;8.924;2022-12-18T03:13:00;97858.97;;;-8.50;86.41
10135;BME280;5107;48.850;8.924;2022-12-18T03:15:34;97858.13;;;-8.51;86.18
10135;BME280;5107;48.850;8.924;2022-12-18T03:18:13;97853.91;;;-8.53;86.64
10135;BME280;5107;48.850;8.924;2022-12-18T03:20:44;97853.44;;;-8.73;86.96
10135;BME280;5107;48.850;8.924;2022-12-18T03:23:19;97861.09;;;-8.75;86.87
10135;BME280;5107;48.850;8.924;2022-12-18T03:25:52;97867.03;;;-8.76;86.09
10135;BME280;5107;48.850;8.924;2022-12-18T03:28:28;97875.66;;;-8.82;86.41
10135;BME280;5107;48.850;8.924;2022-12-18T03:31:01;97867.16;;;-8.82;86.29
10135;BME280;5107;48.850;8.924;2022-12-18T03:33:34;97856.22;;;-8.90;86.57
10135;BME280;5107;48.850;8.924;2022-12-18T03:36:04;97863.13;;;-8.97;86.74
10135;BME280;5107;48.850;8.924;2022-12-18T03:38:32;97852.81;;;-8.88;85.86
10135;BME280;5107;48.850;8.924;2022-12-18T03:41:07;97854.94;;;-9.17;86.63
10135;BME280;5107;48.850;8.924;2022-12-18T03:44:03;97856.84;;;-9.33;86.82
10135;BME280;5107;48.850;8.924;2022-12-18T03:46:43;97856.22;;;-9.48;87.85
10135;BME280;5107;48.850;8.924;2022-12-18T03:49:23;97859.69;;;-9.54;88.42
10135;BME280;5107;48.850;8.924;2022-12-18T03:52:01;97863.94;;;-9.54;88.78
10135;BME280;5107;48.850;8.924;2022-12-18T03:54:31;97864.84;;;-9.60;88.22
10135;BME280;5107;48.850;8.924;2022-12-18T03:57:11;97857.31;;;-9.68;88.61
10135;BME280;5107;48.850;8.924;2022-12-18T03:59:43;97847.13;;;-9.68;89.01
10135;BME280;5107;48.850;8.924;2022-12-18T04:02:15;97853.94;;;-9.70;89.53
10135;BME280;5107;48.850;8.924;2022-12-18T04:04:43;97853.97;;;-9.71;88.44
10135;BME280;5107;48.850;8.924;2022-12-18T04:07:13;97848.03;;;-9.72;88.58
10135;BME280;5107;48.850;8.924;2022-12-18T04:09:44;97851.63;;;-9.88;88.07
10135;BME280;5107;48.850;8.924;2022-12-18T04:12:13;97855.91;;;-9.91;88.73
10135;BME280;5107;48.850;8.924;2022-12-18T04:14:42;97859.28;;;-9.92;88.59
10135;BME280;5107;48.850;8.924;2022-12-18T04:17:09;97859.38;;;-10.00;88.56
10135;BME280;5107;48.850;8.924;2022-12-18T04:19:36;97857.78;;;-10.07;89.21
10135;BME280;5107;48.850;8.924;2022-12-18T04:22:04;97861.19;;;-10.11;89.76
10135;BME280;5107;48.850;8.924;2022-12-18T04:24:37;97864.63;;;-10.15;89.80
10135;BME280;5107;48.850;8.924;2022-12-18T04:27:11;97857.06;;;-10.20;90.33
10135;BME280;5107;48.850;8.924;2022-12-18T04:29:44;97866.41;;;-10.20;90.59
10135;BME280;5107;48.850;8.924;2022-12-18T04:32:11;97864.75;;;-10.21;90.57
10135;BME280;5107;48.850;8.924;2022-12-18T04:34:41;97855.44;;;-10.27;90.28
10135;BME280;5107;48.850;8.924;2022-12-18T04:37:08;97848.66;;;-10.26;90.53
10135;BME280;5107;48.850;8.924;2022-12-18T04:39:35;97844.53;;;-10.35;90.36
10135;BME280;5107;48.850;8.924;2022-12-18T04:42:08;97848.78;;;-10.37;90.96
10135;BME280;5107;48.850;8.924;2022-12-18T04:44:35;97846.28;;;-10.39;91.18
10135;BME280;5107;48.850;8.924;2022-12-18T04:47:04;97835.25;;;-10.38;91.35
10135;BME280;5107;48.850;8.924;2022-12-18T04:49:31;97846.22;;;-10.34;91.39
10135;BME280;5107;48.850;8.924;2022-12-18T04:51:58;97841.84;;;-10.21;91.22
10135;BME280;5107;48.850;8.924;2022-12-18T04:54:25;97840.84;;;-10.10;90.73
10135;BME280;5107;48.850;8.924;2022-12-18T04:56:52;97843.28;;;-10.02;90.17
10135;BME280;5107;48.850;8.924;2022-12-18T04:59:19;97855.97;;;-9.96;89.99
10135;BME280;5107;48.850;8.924;2022-12-18T05:01:46;97851.56;;;-9.83;89.99
10135;BME280;5107;48.850;8.924;2022-12-18T05:04:14;97847.31;;;-9.81;89.83
10135;BME280;5107;48.850;8.924;2022-12-18T05:06:41;97849.84;;;-9.80;89.93
10135;BME280;5107;48.850;8.924;2022-12-18T05:09:08;97859.13;;;-9.79;90.22
10135;BME280;5107;48.850;8.924;2022-12-18T05:11:35;97852.31;;;-9.75;89.51
10135;BME280;5107;48.850;8.924;2022-12-18T05:14:03;97854.13;;;-9.85;89.71
10135;BME280;5107;48.850;8.924;2022-12-18T05:16:30;97856.72;;;-9.89;89.80
10135;BME280;5107;48.850;8.924;2022-12-18T05:18:57;97858.34;;;-9.85;89.97
10135;BME280;5107;48.850;8.924;2022-12-18T05:21:25;97861.66;;;-9.79;90.22
10135;BME280;5107;48.850;8.924;2022-12-18T05:23:52;97862.56;;;-9.80;90.29
10135;BME280;5107;48.850;8.924;2022-12-18T05:26:19;97865.91;;;-9.78;90.31
10135;BME280;5107;48.850;8.924;2022-12-18T05:28:46;97881.16;;;-9.75;90.12
10135;BME280;5107;48.850;8.924;2022-12-18T05:31:14;97885.28;;;-9.65;90.64
10135;BME280;5107;48.850;8.924;2022-12-18T05:33:41;97889.44;;;-9.57;90.09
10135;BME280;5107;48.850;8.924;2022-12-18T05:36:09;97880.88;;;-9.53;89.88
10135;BME280;5107;48.850;8.924;2022-12-18T05:38:38;97883.47;;;-9.55;90.31
10135;BME280;5107;48.850;8.924;2022-12-18T05:41:06;97873.31;;;-9.58;90.75
10135;BME280;5107;48.850;8.924;2022-12-18T05:43:35;97875.81;;;-9.55;90.80
10135;BME280;5107;48.850;8.924;2022-12-18T05:46:04;97877.56;;;-9.59;90.63
10135;BME280;5107;48.850;8.924;2022-12-18T05:48:32;97875.63;;;-9.41;90.81
10135;BME280;5107;48.850;8.924;2022-12-18T05:51:05;97874.03;;;-9.47;92.07
10135;BME280;5107;48.850;8.924;2022-12-18T05:53:33;97862.13;;;-9.46;92.29
10135;BME280;5107;48.850;8.924;2022-12-18T05:56:03;97874.88;;;-9.48;92.75
10135;BME280;5107;48.850;8.924;2022-12-18T05:58:31;97877.41;;;-9.46;93.43
10135;BME280;5107;48.850;8.924;2022-12-18T06:01:08;97889.22;;;-9.42;94.49
10135;BME280;5107;48.850;8.924;2022-12-18T06:03:35;97877.13;;;-9.25;94.56
10135;BME280;5107;48.850;8.924;2022-12-18T06:06:03;97874.56;;;-9.24;93.94
10135;BME280;5107;48.850;8.924;2022-12-18T06:08:30;97871.75;;;-9.04;94.29
10135;BME280;5107;48.850;8.924;2022-12-18T06:10:59;97870.00;;;-9.03;94.61
10135;BME280;5107;48.850;8.924;2022-12-18T06:13:27;97876.66;;;-8.95;95.10
10135;BME280;5107;48.850;8.924;2022-12-18T06:15:54;97876.63;;;-8.92;95.13
10135;BME280;5107;48.850;8.924;2022-12-18T06:18:21;97882.53;;;-8.88;95.55
10135;BME280;5107;48.850;8.924;2022-12-18T06:20:55;97874.00;;;-8.86;95.37
10135;BME280;5107;48.850;8.924;2022-12-18T06:23:22;97868.81;;;-8.79;95.51
10135;BME280;5107;48.850;8.924;2022-12-18T06:25:49;97881.34;;;-8.67;96.14
10135;BME280;5107;48.850;8.924;2022-12-18T06:28:16;97888.88;;;-8.60;95.66
10135;BME280;5107;48.850;8.924;2022-12-18T06:30:45;97890.50;;;-8.54;95.60
10135;BME280;5107;48.850;8.924;2022-12-18T06:33:14;97887.06;;;-8.53;95.54
10135;BME280;5107;48.850;8.924;2022-12-18T06:35:41;97891.25;;;-8.48;95.42
10135;BME280;5107;48.850;8.924;2022-12-18T06:38:08;97894.69;;;-8.50;95.41
10135;BME280;5107;48.850;8.924;2022-12-18T06:40:37;97892.84;;;-8.42;95.22
10135;BME280;5107;48.850;8.924;2022-12-18T06:43:05;97884.22;;;-8.35;95.20
10135;BME280;5107;48.850;8.924;2022-12-18T06:45:32;97891.09;;;-8.38;94.86
10135;BME280;5107;48.850;8.924;2022-12-18T06:48:01;97890.25;;;-8.37;94.56
10135;BME280;5107;48.850;8.924;2022-12-18T06:50:28;97899.59;;;-8.38;95.03
10135;BME280;5107;48.850;8.924;2022-12-18T06:52:55;97899.34;;;-8.26;94.43
10135;BME280;5107;48.850;8.924;2022-12-18T06:55:22;97907.00;;;-8.26;94.46
10135;BME280;5107;48.850;8.924;2022-12-18T06:57:49;97900.13;;;-8.21;94.73
10135;BME280;5107;48.850;8.924;2022-12-18T07:00:17;97906.09;;;-8.22;93.95
10135;BME280;5107;48.850;8.924;2022-12-18T07:02:44;97914.81;;;-8.33;93.62
10135;BME280;5107;48.850;8.924;2022-12-18T07:05:12;97916.44;;;-8.29;93.38
10135;BME280;5107;48.850;8.924;2022-12-18T07:07:39;97923.25;;;-8.30;93.41
10135;BME280;5107;48.850;8.924;2022-12-18T07:10:07;97914.97;;;-8.43;92.91
10135;BME280;5107;48.850;8.924;2022-12-18T07:12:34;97914.91;;;-8.38;92.62
10135;BME280;5107;48.850;8.924;2022-12-18T07:15:01;97910.69;;;-8.42;92.79
10135;BME280;5107;48.850;8.924;2022-12-18T07:17:28;97918.47;;;-8.48;92.51
10135;BME280;5107;48.850;8.924;2022-12-18T07:19:56;97918.47;;;-8.48;92.21
10135;BME280;5107;48.850;8.924;2022-12-18T07:22:25;97915.81;;;-8.42;92.44
10135;BME280;5107;48.850;8.924;2022-12-18T07:24:52;97915.59;;;-8.30;91.83
10135;BME280;5107;48.850;8.924;2022-12-18T07:27:19;97923.97;;;-8.23;91.71
10135;BME280;5107;48.850;8.924;2022-12-18T07:29:46;97926.28;;;-8.10;91.58
10135;BME280;5107;48.850;8.924;2022-12-18T07:32:14;97930.31;;;-7.96;91.43
10135;BME280;5107;48.850;8.924;2022-12-18T07:34:41;97924.13;;;-7.83;90.85
10135;BME280;5107;48.850;8.924;2022-12-18T07:37:08;97926.34;;;-7.65;90.15
10135;BME280;5107;48.850;8.924;2022-12-18T07:39:36;97924.81;;;-7.32;89.35
10135;BME280;5107;48.850;8.924;2022-12-18T07:42:04;97921.00;;;-7.11;88.50
10135;BME280;5107;48.850;8.924;2022-12-18T07:44:49;97921.34;;;-6.88;87.69
10135;BME280;5107;48.850;8.924;2022-12-18T07:47:16;97916.88;;;-6.78;86.14
10135;BME280;5107;48.850;8.924;2022-12-18T07:49:43;97922.59;;;-6.69;85.63
10135;BME280;5107;48.850;8.924;2022-12-18T07:52:10;97921.47;;;-6.56;84.26
10135;BME280;5107;48.850;8.924;2022-12-18T07:54:39;97926.44;;;-6.49;83.72
10135;BME280;5107;48.850;8.924;2022-12-18T07:57:06;97926.00;;;-6.31;82.67
10135;BME280;5107;48.850;8.924;2022-12-18T07:59:35;97922.47;;;-6.27;81.54
10135;BME280;5107;48.850;8.924;2022-12-18T08:02:02;97926.81;;;-6.29;81.73
10135;BME280;5107;48.850;8.924;2022-12-18T08:04:29;97922.56;;;-6.30;81.48
10135;BME280;5107;48.850;8.924;2022-12-18T08:06:56;97927.31;;;-5.84;80.83
10135;BME280;5107;48.850;8.924;2022-12-18T08:09:23;97925.31;;;-6.04;79.38
10135;BME280;5107;48.850;8.924;2022-12-18T08:11:52;97929.84;;;-5.83;79.02
10135;BME280;5107;48.850;8.924;2022-12-18T08:14:19;97943.66;;;-5.56;78.29
10135;BME280;5107;48.850;8.924;2022-12-18T08:16:46;97945.56;;;-5.31;77.28
10135;BME280;5107;48.850;8.924;2022-12-18T08:19:13;97945.78;;;-5.10;76.10
10135;BME280;5107;48.850;8.924;2022-12-18T08:21:41;97937.47;;;-4.87;75.31
10135;BME280;5107;48.850;8.924;2022-12-18T08:24:09;97931.13;;;-5.05;74.76
10135;BME280;5107;48.850;8.924;2022-12-18T08:26:36;97931.53;;;-4.61;74.79
10135;BME280;5107;48.850;8.924;2022-12-18T08:29:05;97937.81;;;-4.43;74.34
10135;BME280;5107;48.850;8.924;2022-12-18T08:31:32;97939.13;;;-4.30;73.26
10135;BME280;5107;48.850;8.924;2022-12-18T08:34:00;97944.63;;;-4.14;71.93
10135;BME280;5107;48.850;8.924;2022-12-18T08:36:27;97942.69;;;-4.08;71.82
10135;BME280;5107;48.850;8.924;2022-12-18T08:38:54;97943.34;;;-3.76;72.61
10135;BME280;5107;48.850;8.924;2022-12-18T08:41:21;97941.78;;;-3.80;71.29
10135;BME280;5107;48.850;8.924;2022-12-18T08:43:48;97940.31;;;-3.63;71.38
10135;BME280;5107;48.850;8.924;2022-12-18T08:46:36;97934.66;;;-3.48;70.37
10135;BME280;5107;48.850;8.924;2022-12-18T08:49:05;97939.75;;;-3.46;70.77
10135;BME280;5107;48.850;8.924;2022-12-18T08:51:32;97928.03;;;-3.55;69.87
10135;BME280;5107;48.850;8.924;2022-12-18T08:53:59;97923.44;;;-3.70;69.23
10135;BME280;5107;48.850;8.924;2022-12-18T08:56:26;97926.56;;;-3.62;70.40
10135;BME280;5107;48.850;8.924;2022-12-18T08:58:54;97925.00;;;-3.66;70.50
10135;BME280;5107;48.850;8.924;2022-12-18T09:01:22;97924.56;;;-3.29;70.54
10135;BME280;5107;48.850;8.924;2022-12-18T09:03:51;97922.91;;;-3.55;71.21
10135;BME280;5107;48.850;8.924;2022-12-18T09:06:20;97917.22;;;-3.64;72.54
10135;BME280;5107;48.850;8.924;2022-12-18T09:08:47;97921.41;;;-3.37;71.05
10135;BME280;5107;48.850;8.924;2022-12-18T09:11:19;97908.50;;;-3.12;70.21
10135;BME280;5107;48.850;8.924;2022-12-18T09:13:46;97913.28;;;-2.80;69.81
10135;BME280;5107;48.850;8.924;2022-12-18T09:16:13;97910.97;;;-2.86;69.01
10135;BME280;5107;48.850;8.924;2022-12-18T09:18:41;97911.38;;;-2.75;69.05
10135;BME280;5107;48.850;8.924;2022-12-18T09:21:11;97907.22;;;-3.24;69.45
10135;BME280;5107;48.850;8.924;2022-12-18T09:23:38;97913.03;;;-3.67;72.45
10135;BME280;5107;48.850;8.924;2022-12-18T09:26:06;97915.75;;;-4.23;74.96
10135;BME280;5107;48.850;8.924;2022-12-18T09:28:33;97913.28;;;-4.26;76.03
10135;BME280;5107;48.850;8.924;2022-12-18T09:31:05;97907.84;;;-4.16;75.49
10135;BME280;5107;48.850;8.924;2022-12-18T09:33:33;97902.22;;;-3.76;75.61
10135;BME280;5107;48.850;8.924;2022-12-18T09:36:02;97906.09;;;-3.40;73.70
10135;BME280;5107;48.850;8.924;2022-12-18T09:38:31;97909.13;;;-3.06;72.38
10135;BME280;5107;48.850;8.924;2022-12-18T09:41:03;97904.47;;;-2.74;71.48
10135;BME280;5107;48.850;8.924;2022-12-18T09:43:41;97905.03;;;-2.66;71.25
10135;BME280;5107;48.850;8.924;2022-12-18T09:46:17;97904.06;;;-2.42;69.82
10135;BME280;5107;48.850;8.924;2022-12-18T09:48:49;97900.97;;;-2.08;68.28
10135;BME280;5107;48.850;8.924;2022-12-18T09:51:20;97909.09;;;-2.39;68.78
10135;BME280;5107;48.850;8.924;2022-12-18T09:53:56;97900.56;;;-2.61;69.87
10135;BME280;5107;48.850;8.924;2022-12-18T09:56:28;97904.34;;;-2.93;70.08
10135;BME280;5107;48.850;8.924;2022-12-18T09:59:00;97908.50;;;-3.12;70.52
10135;BME280;5107;48.850;8.924;2022-12-18T10:01:29;97922.44;;;-2.73;70.03
10135;BME280;5107;48.850;8.924;2022-12-18T10:03:57;97923.03;;;-2.88;70.81
10135;BME280;5107;48.850;8.924;2022-12-18T10:06:28;97916.50;;;-2.75;69.89
10135;BME280;5107;48.850;8.924;2022-12-18T10:09:04;97922.00;;;-2.84;70.18
10135;BME280;5107;48.850;8.924;2022-12-18T10:11:43;97927.25;;;-2.20;70.04
10135;BME280;5107;48.850;8.924;2022-12-18T10:14:20;97929.25;;;-1.64;67.53
10135;BME280;5107;48.850;8.924;2022-12-18T10:17:00;97932.19;;;-1.73;66.84
10135;BME280;5107;48.850;8.924;2022-12-18T10:19:39;97924.84;;;-1.42;66.25
10135;BME280;5107;48.850;8.924;2022-12-18T10:22:21;97931.16;;;-1.29;64.86
10135;BME280;5107;48.850;8.924;2022-12-18T10:24:58;97931.03;;;-1.46;66.01
10135;BME280;5107;48.850;8.924;2022-12-18T10:27:27;97932.78;;;-1.26;66.14
10135;BME280;5107;48.850;8.924;2022-12-18T10:29:55;97921.78;;;-1.11;64.86
10135;BME280;5107;48.850;8.924;2022-12-18T10:32:25;97917.09;;;-1.03;64.67
10135;BME280;5107;48.850;8.924;2022-12-18T10:34:54;97919.28;;;-0.94;63.82
10135;BME280;5107;48.850;8.924;2022-12-18T10:37:27;97916.13;;;-1.19;64.60
10135;BME280;5107;48.850;8.924;2022-12-18T10:40:10;97914.50;;;-1.42;66.83
10135;BME280;5107;48.850;8.924;2022-12-18T10:42:38;97919.38;;;-1.16;65.89
10135;BME280;5107;48.850;8.924;2022-12-18T10:45:11;97926.66;;;-1.44;66.35
10135;BME280;5107;48.850;8.924;2022-12-18T10:47:43;97934.22;;;-1.60;67.80
10135;BME280;5107;48.850;8.924;2022-12-18T10:50:33;97934.47;;;-1.66;68.27
10135;BME280;5107;48.850;8.924;2022-12-18T10:53:02;97924.88;;;-1.62;68.91
10135;BME280;5107;48.850;8.924;2022-12-18T10:55:35;97925.38;;;-1.54;68.44
10135;BME280;5107;48.850;8.924;2022-12-18T10:58:19;97909.91;;;-1.54;67.69
10135;BME280;5107;48.850;8.924;2022-12-18T11:01:08;97921.16;;;-1.36;66.72
10135;BME280;5107;48.850;8.924;2022-12-18T11:03:38;97910.41;;;-1.46;68.30
10135;BME280;5107;48.850;8.924;2022-12-18T11:06:09;97900.56;;;-1.18;67.74
10135;BME280;5107;48.850;8.924;2022-12-18T11:08:38;97908.00;;;-1.30;66.86
10135;BME280;5107;48.850;8.924;2022-12-18T11:11:20;97899.47;;;-1.51;67.63
10135;BME280;5107;48.850;8.924;2022-12-18T11:13:58;97899.38;;;-1.10;67.16
10135;BME280;5107;48.850;8.924;2022-12-18T11:16:27;97901.97;;;-1.10;67.88
10135;BME280;5107;48.850;8.924;2022-12-18T11:19:21;97906.84;;;-1.04;68.64
10135;BME280;5107;48.850;8.924;2022-12-18T11:21:51;97910.53;;;-0.91;67.86
10135;BME280;5107;48.850;8.924;2022-12-18T11:24:24;97900.97;;;-0.89;68.37
10135;BME280;5107;48.850;8.924;2022-12-18T11:26:54;97910.41;;;-0.69;67.39
10135;BME280;5107;48.850;8.924;2022-12-18T11:29:30;97901.09;;;-0.73;67.93
10135;BME280;5107;48.850;8.924;2022-12-18T11:32:29;97895.06;;;-1.10;69.82
10135;BME280;5107;48.850;8.924;2022-12-18T11:35:07;97894.28;;;-0.93;69.39
10135;BME280;5107;48.850;8.924;2022-12-18T11:37:39;97886.50;;;-1.31;70.19
10135;BME280;5107;48.850;8.924;2022-12-18T11:40:14;97889.88;;;-1.10;70.34
10135;BME280;5107;48.850;8.924;2022-12-18T11:42:48;97890.84;;;-1.12;70.85
10135;BME280;5107;48.850;8.924;2022-12-18T11:45:27;97893.09;;;-0.86;70.70
10135;BME280;5107;48.850;8.924;2022-12-18T11:48:01;97882.78;;;-0.86;69.57
10135;BME280;5107;48.850;8.924;2022-12-18T11:50:37;97879.28;;;-1.04;70.85
10135;BME280;5107;48.850;8.924;2022-12-18T11:53:10;97878.75;;;-0.74;70.21
10135;BME280;5107;48.850;8.924;2022-12-18T11:55:47;97882.34;;;-0.96;70.56
10135;BME280;5107;48.850;8.924;2022-12-18T11:58:33;97881.81;;;-1.02;71.26
10135;BME280;5107;48.850;8.924;2022-12-18T12:01:12;97881.16;;;-0.89;71.08
10135;BME280;5107;48.850;8.924;2022-12-18T12:04:18;97885.72;;;-0.58;70.12
10135;BME280;5107;48.850;8.924;2022-12-18T12:06:56;97875.22;;;-0.72;69.56
10135;BME280;5107;48.850;8.924;2022-12-18T12:09:33;97867.13;;;-0.83;69.89
10135;BME280;5107;48.850;8.924;2022-12-18T12:12:26;97864.13;;;-1.30;71.41
10135;BME280;5107;48.850;8.924;2022-12-18T12:15:03;97865.44;;;-1.22;71.83
10135;BME280;5107;48.850;8.924;2022-12-18T12:17:37;97862.25;;;-1.27;71.17
10135;BME280;5107;48.850;8.924;2022-12-18T12:20:16;97861.66;;;-1.52;71.48
10135;BME280;5107;48.850;8.924;2022-12-18T12:22:54;97863.63;;;-1.77;72.76
10135;BME280;5107;48.850;8.924;2022-12-18T12:25:34;97864.13;;;-1.69;73.71
10135;BME280;5107;48.850;8.924;2022-12-18T12:28:35;97861.03;;;-1.77;73.79
10135;BME280;5107;48.850;8.924;2022-12-18T12:31:18;97852.88;;;-1.48;72.83
10135;BME280;5107;48.850;8.924;2022-12-18T12:33:58;97860.25;;;-1.40;72.59
10135;BME280;5107;48.850;8.924;2022-12-18T12:36:36;97868.84;;;-1.40;71.84
10135;BME280;5107;48.850;8.924;2022-12-18T12:39:09;97871.56;;;-1.43;72.26
10135;BME280;5107;48.850;8.924;2022-12-18T12:41:40;97880.91;;;-1.59;73.20
10135;BME280;5107;48.850;8.924;2022-12-18T12:44:40;97871.31;;;-1.57;73.42
10135;BME280;5107;48.850;8.924;2022-12-18T12:47:16;97877.25;;;-1.55;73.23
10135;BME280;5107;48.850;8.924;2022-12-18T12:49:44;97872.50;;;-1.64;74.06
10135;BME280;5107;48.850;8.924;2022-12-18T12:52:17;97872.94;;;-1.75;74.03
10135;BME280;5107;48.850;8.924;2022-12-18T12:54:49;97889.66;;;-1.63;74.49
10135;BME280;5107;48.850;8.924;2022-12-18T12:57:20;97890.31;;;-1.39;73.98
10135;BME280;5107;48.850;8.924;2022-12-18T12:59:57;97890.88;;;-1.33;72.93
10135;BME280;5107;48.850;8.924;2022-12-18T13:02:34;97888.78;;;-1.04;70.92
10135;BME280;5107;48.850;8.924;2022-12-18T13:05:09;97886.88;;;-1.20;71.74
10135;BME280;5107;48.850;8.924;2022-12-18T13:07:50;97885.13;;;-1.19;71.34
10135;BME280;5107;48.850;8.924;2022-12-18T13:10:36;97880.66;;;-1.16;71.39
10135;BME280;5107;48.850;8.924;2022-12-18T13:13:05;97880.53;;;-0.94;71.21
10135;BME280;5107;48.850;8.924;2022-12-18T13:15:39;97879.41;;;-0.69;69.53
10135;BME280;5107;48.850;8.924;2022-12-18T13:18:19;97877.97;;;-0.58;69.47
10135;BME280;5107;48.850;8.924;2022-12-18T13:20:50;97873.00;;;-0.44;68.41
10135;BME280;5107;48.850;8.924;2022-12-18T13:23:38;97868.59;;;-0.24;68.26
10135;BME280;5107;48.850;8.924;2022-12-18T13:26:33;97857.16;;;-0.02;67.39
10135;BME280;5107;48.850;8.924;2022-12-18T13:29:02;97849.53;;;-0.05;66.90
10135;BME280;5107;48.850;8.924;2022-12-18T13:32:16;97858.66;;;0.03;66.63
10135;BME280;5107;48.850;8.924;2022-12-18T13:34:45;97864.38;;;0.09;66.66